sensor_id;sensor_type;location;lat;lon;timestamp;P1;durP1;ratioP1;P2;durP2;ratioP2
37633;SDS011;32048;49.902;22.508;2023-08-20T00:01:37;28.40;;;23.00;;
37633;SDS011;32048;49.902;22.508;2023-08-20T00:04:04;25.55;;;21.13;;
37633;SDS011;32048;49.902;22.508;2023-08-20T00:06:32;24.95;;;21.63;;
37633;SDS011;32048;49.902;22.508;2023-08-20T00:08:59;23.90;;;20.90;;
37633;SDS011;32048;49.902;22.508;2023-08-20T00:11:27;23.20;;;20.70;;
37633;SDS011;32048;49.902;22.508;2023-08-20T00:13:54;22.05;;;19.80;;
37633;SDS011;32048;49.902;22.508;2023-08-20T00:16:21;21.33;;;18.10;;
37633;SDS011;32048;49.902;22.508;2023-08-20T00:18:48;19.40;;;17.50;;
37633;SDS011;32048;49.902;22.508;2023-08-20T00:21:16;17.83;;;16.17;;
37633;SDS011;32048;49.902;22.508;2023-08-20T00:23:43;17.92;;;16.08;;
37633;SDS011;32048;49.902;22.508;2023-08-20T00:26:10;17.25;;;15.43;;
37633;SDS011;32048;49.902;22.508;2023-08-20T00:28:40;19.67;;;16.45;;
37633;SDS011;32048;49.902;22.508;2023-08-20T00:31:08;17.95;;;15.32;;
37633;SDS011;32048;49.902;22.508;2023-08-20T00:33:35;18.52;;;16.25;;
37633;SDS011;32048;49.902;22.508;2023-08-20T00:36:02;18.52;;;15.57;;
37633;SDS011;32048;49.902;22.508;2023-08-20T00:38:29;20.30;;;16.63;;
37633;SDS011;32048;49.902;22.508;2023-08-20T00:40:57;22.13;;;17.65;;
37633;SDS011;32048;49.902;22.508;2023-08-20T00:43:24;19.70;;;15.75;;
37633;SDS011;32048;49.902;22.508;2023-08-20T00:45:51;19.67;;;17.58;;
37633;SDS011;32048;49.902;22.508;2023-08-20T00:48:18;19.17;;;17.17;;
37633;SDS011;32048;49.902;22.508;2023-08-20T00:50:46;20.02;;;17.95;;
37633;SDS011;32048;49.902;22.508;2023-08-20T00:53:13;19.33;;;17.33;;
37633;SDS011;32048;49.902;22.508;2023-08-20T00:55:41;20.30;;;18.10;;
37633;SDS011;32048;49.902;22.508;2023-08-20T00:58:09;22.38;;;19.65;;
37633;SDS011;32048;49.902;22.508;2023-08-20T01:00:37;22.63;;;18.08;;
37633;SDS011;32048;49.902;22.508;2023-08-20T01:03:04;21.15;;;18.95;;
37633;SDS011;32048;49.902;22.508;2023-08-20T01:05:32;22.40;;;19.75;;
37633;SDS011;32048;49.902;22.508;2023-08-20T01:13:15;19.23;;;17.30;;
37633;SDS011;32048;49.902;22.508;2023-08-20T01:15:43;18.23;;;16.38;;
37633;SDS011;32048;49.902;22.508;2023-08-20T01:18:10;20.08;;;16.80;;
37633;SDS011;32048;49.902;22.508;2023-08-20T01:20:39;17.85;;;15.57;;
37633;SDS011;32048;49.902;22.508;2023-08-20T01:29:15;16.88;;;15.18;;
37633;SDS011;32048;49.902;22.508;2023-08-20T01:31:43;22.38;;;16.67;;
37633;SDS011;32048;49.902;22.508;2023-08-20T01:34:11;18.63;;;15.93;;
37633;SDS011;32048;49.902;22.508;2023-08-20T01:36:40;18.17;;;16.35;;
37633;SDS011;32048;49.902;22.508;2023-08-20T01:39:07;18.58;;;16.77;;
37633;SDS011;32048;49.902;22.508;2023-08-20T01:41:35;19.13;;;16.95;;
37633;SDS011;32048;49.902;22.508;2023-08-20T01:44:02;19.23;;;17.20;;
37633;SDS011;32048;49.902;22.508;2023-08-20T01:46:29;19.52;;;17.60;;
37633;SDS011;32048;49.902;22.508;2023-08-20T01:48:56;21.80;;;17.27;;
37633;SDS011;32048;49.902;22.508;2023-08-20T01:51:24;22.38;;;16.77;;
37633;SDS011;32048;49.902;22.508;2023-08-20T01:53:51;19.90;;;17.48;;
37633;SDS011;32048;49.902;22.508;2023-08-20T01:56:18;19.35;;;17.27;;
37633;SDS011;32048;49.902;22.508;2023-08-20T01:58:45;20.25;;;18.15;;
37633;SDS011;32048;49.902;22.508;2023-08-20T02:01:12;21.08;;;18.67;;
37633;SDS011;32048;49.902;22.508;2023-08-20T02:03:39;19.58;;;17.45;;
37633;SDS011;32048;49.902;22.508;2023-08-20T02:06:06;21.23;;;16.75;;
37633;SDS011;32048;49.902;22.508;2023-08-20T02:08:33;19.38;;;17.15;;
37633;SDS011;32048;49.902;22.508;2023-08-20T02:11:01;20.30;;;17.10;;
37633;SDS011;32048;49.902;22.508;2023-08-20T02:13:29;20.27;;;17.30;;
37633;SDS011;32048;49.902;22.508;2023-08-20T02:15:58;21.45;;;17.75;;
37633;SDS011;32048;49.902;22.508;2023-08-20T02:18:29;20.30;;;18.20;;
37633;SDS011;32048;49.902;22.508;2023-08-20T02:20:57;21.77;;;18.97;;
37633;SDS011;32048;49.902;22.508;2023-08-20T02:23:24;25.27;;;18.55;;
37633;SDS011;32048;49.902;22.508;2023-08-20T02:25:51;27.05;;;20.05;;
37633;SDS011;32048;49.902;22.508;2023-08-20T02:28:18;20.92;;;18.75;;
37633;SDS011;32048;49.902;22.508;2023-08-20T02:30:46;24.00;;;20.02;;
37633;SDS011;32048;49.902;22.508;2023-08-20T02:33:13;24.17;;;20.02;;
37633;SDS011;32048;49.902;22.508;2023-08-20T02:35:41;27.25;;;21.60;;
37633;SDS011;32048;49.902;22.508;2023-08-20T02:38:08;26.92;;;20.77;;
37633;SDS011;32048;49.902;22.508;2023-08-20T02:40:40;24.27;;;20.10;;
37633;SDS011;32048;49.902;22.508;2023-08-20T02:43:08;22.92;;;19.80;;
37633;SDS011;32048;49.902;22.508;2023-08-20T02:45:41;23.00;;;20.38;;
37633;SDS011;32048;49.902;22.508;2023-08-20T02:48:09;23.70;;;20.95;;
37633;SDS011;32048;49.902;22.508;2023-08-20T02:50:37;25.70;;;20.73;;
37633;SDS011;32048;49.902;22.508;2023-08-20T02:53:04;21.90;;;19.60;;
37633;SDS011;32048;49.902;22.508;2023-08-20T02:55:32;22.65;;;19.30;;
37633;SDS011;32048;49.902;22.508;2023-08-20T02:58:00;21.10;;;18.83;;
37633;SDS011;32048;49.902;22.508;2023-08-20T03:00:27;20.80;;;17.05;;
37633;SDS011;32048;49.902;22.508;2023-08-20T03:02:54;21.83;;;18.45;;
37633;SDS011;32048;49.902;22.508;2023-08-20T03:05:22;23.27;;;17.85;;
37633;SDS011;32048;49.902;22.508;2023-08-20T03:07:49;21.30;;;19.10;;
37633;SDS011;32048;49.902;22.508;2023-08-20T03:10:16;23.80;;;19.45;;
37633;SDS011;32048;49.902;22.508;2023-08-20T03:12:43;21.33;;;18.10;;
37633;SDS011;32048;49.902;22.508;2023-08-20T03:15:11;23.88;;;17.65;;
37633;SDS011;32048;49.902;22.508;2023-08-20T03:17:38;21.58;;;17.70;;
37633;SDS011;32048;49.902;22.508;2023-08-20T03:20:05;20.83;;;17.35;;
37633;SDS011;32048;49.902;22.508;2023-08-20T03:22:33;19.75;;;16.83;;
37633;SDS011;32048;49.902;22.508;2023-08-20T03:25:00;18.65;;;15.48;;
37633;SDS011;32048;49.902;22.508;2023-08-20T03:27:27;20.70;;;16.98;;
37633;SDS011;32048;49.902;22.508;2023-08-20T03:29:55;20.02;;;17.08;;
37633;SDS011;32048;49.902;22.508;2023-08-20T03:32:22;19.75;;;16.38;;
37633;SDS011;32048;49.902;22.508;2023-08-20T03:34:50;19.98;;;17.88;;
37633;SDS011;32048;49.902;22.508;2023-08-20T03:37:17;20.63;;;18.42;;
37633;SDS011;32048;49.902;22.508;2023-08-20T03:39:44;20.20;;;17.13;;
37633;SDS011;32048;49.902;22.508;2023-08-20T03:42:11;21.20;;;17.42;;
37633;SDS011;32048;49.902;22.508;2023-08-20T03:44:38;20.42;;;15.77;;
37633;SDS011;32048;49.902;22.508;2023-08-20T03:47:05;22.77;;;16.38;;
37633;SDS011;32048;49.902;22.508;2023-08-20T03:49:35;21.40;;;18.38;;
37633;SDS011;32048;49.902;22.508;2023-08-20T03:52:03;21.30;;;18.92;;
37633;SDS011;32048;49.902;22.508;2023-08-20T03:54:30;22.95;;;18.50;;
37633;SDS011;32048;49.902;22.508;2023-08-20T03:56:57;20.00;;;17.50;;
37633;SDS011;32048;49.902;22.508;2023-08-20T03:59:24;19.88;;;17.52;;
37633;SDS011;32048;49.902;22.508;2023-08-20T04:01:51;18.38;;;15.35;;
37633;SDS011;32048;49.902;22.508;2023-08-20T04:04:19;18.27;;;16.42;;
37633;SDS011;32048;49.902;22.508;2023-08-20T04:06:47;16.67;;;14.80;;
37633;SDS011;32048;49.902;22.508;2023-08-20T04:09:15;16.08;;;13.68;;
37633;SDS011;32048;49.902;22.508;2023-08-20T04:11:43;14.77;;;13.13;;
37633;SDS011;32048;49.902;22.508;2023-08-20T04:14:10;16.23;;;12.82;;
37633;SDS011;32048;49.902;22.508;2023-08-20T04:16:37;14.70;;;11.50;;
37633;SDS011;32048;49.902;22.508;2023-08-20T04:19:04;13.55;;;11.85;;
37633;SDS011;32048;49.902;22.508;2023-08-20T04:21:31;14.73;;;12.77;;
37633;SDS011;32048;49.902;22.508;2023-08-20T04:23:59;12.07;;;10.82;;
37633;SDS011;32048;49.902;22.508;2023-08-20T04:26:26;16.50;;;12.93;;
37633;SDS011;32048;49.902;22.508;2023-08-20T04:28:53;13.63;;;11.43;;
37633;SDS011;32048;49.902;22.508;2023-08-20T04:31:20;14.27;;;11.50;;
37633;SDS011;32048;49.902;22.508;2023-08-20T04:33:47;12.10;;;10.40;;
37633;SDS011;32048;49.902;22.508;2023-08-20T04:36:14;12.45;;;10.43;;
37633;SDS011;32048;49.902;22.508;2023-08-20T04:38:42;13.43;;;9.90;;
37633;SDS011;32048;49.902;22.508;2023-08-20T04:41:09;11.25;;;9.30;;
37633;SDS011;32048;49.902;22.508;2023-08-20T04:43:36;10.40;;;8.55;;
37633;SDS011;32048;49.902;22.508;2023-08-20T04:46:03;10.65;;;8.88;;
37633;SDS011;32048;49.902;22.508;2023-08-20T04:48:30;11.00;;;8.25;;
37633;SDS011;32048;49.902;22.508;2023-08-20T04:50:57;8.63;;;7.57;;
37633;SDS011;32048;49.902;22.508;2023-08-20T04:53:25;12.60;;;8.57;;
37633;SDS011;32048;49.902;22.508;2023-08-20T04:55:52;10.15;;;8.27;;
37633;SDS011;32048;49.902;22.508;2023-08-20T04:58:20;9.68;;;8.63;;
37633;SDS011;32048;49.902;22.508;2023-08-20T05:00:46;12.02;;;8.18;;
37633;SDS011;32048;49.902;22.508;2023-08-20T05:03:14;9.35;;;7.82;;
37633;SDS011;32048;49.902;22.508;2023-08-20T05:05:41;11.50;;;8.40;;
37633;SDS011;32048;49.902;22.508;2023-08-20T05:08:08;9.02;;;7.93;;
37633;SDS011;32048;49.902;22.508;2023-08-20T05:10:36;9.07;;;7.68;;
37633;SDS011;32048;49.902;22.508;2023-08-20T05:13:04;9.83;;;6.93;;
37633;SDS011;32048;49.902;22.508;2023-08-20T05:15:31;9.40;;;7.38;;
37633;SDS011;32048;49.902;22.508;2023-08-20T05:17:58;9.02;;;7.18;;
37633;SDS011;32048;49.902;22.508;2023-08-20T05:20:25;10.25;;;7.60;;
37633;SDS011;32048;49.902;22.508;2023-08-20T05:22:53;10.55;;;7.43;;
37633;SDS011;32048;49.902;22.508;2023-08-20T05:25:20;10.15;;;7.32;;
37633;SDS011;32048;49.902;22.508;2023-08-20T05:27:47;9.23;;;8.32;;
37633;SDS011;32048;49.902;22.508;2023-08-20T05:30:14;11.13;;;7.30;;
37633;SDS011;32048;49.902;22.508;2023-08-20T05:32:41;11.25;;;7.43;;
37633;SDS011;32048;49.902;22.508;2023-08-20T05:35:08;11.40;;;8.13;;
37633;SDS011;32048;49.902;22.508;2023-08-20T05:37:35;8.90;;;7.50;;
37633;SDS011;32048;49.902;22.508;2023-08-20T05:40:02;11.43;;;7.43;;
37633;SDS011;32048;49.902;22.508;2023-08-20T05:42:30;9.25;;;7.20;;
37633;SDS011;32048;49.902;22.508;2023-08-20T05:44:57;10.30;;;7.45;;
37633;SDS011;32048;49.902;22.508;2023-08-20T05:47:24;12.50;;;7.70;;
37633;SDS011;32048;49.902;22.508;2023-08-20T05:49:51;8.88;;;7.22;;
37633;SDS011;32048;49.902;22.508;2023-08-20T05:52:18;10.38;;;7.28;;
37633;SDS011;32048;49.902;22.508;2023-08-20T05:54:45;11.05;;;7.15;;
37633;SDS011;32048;49.902;22.508;2023-08-20T05:57:14;9.77;;;7.55;;
37633;SDS011;32048;49.902;22.508;2023-08-20T05:59:41;11.77;;;6.88;;
37633;SDS011;32048;49.902;22.508;2023-08-20T06:02:08;10.73;;;7.40;;
37633;SDS011;32048;49.902;22.508;2023-08-20T06:04:35;7.75;;;7.05;;
37633;SDS011;32048;49.902;22.508;2023-08-20T06:07:03;8.07;;;7.28;;
37633;SDS011;32048;49.902;22.508;2023-08-20T06:09:30;10.18;;;7.55;;
37633;SDS011;32048;49.902;22.508;2023-08-20T06:11:57;8.55;;;7.65;;
37633;SDS011;32048;49.902;22.508;2023-08-20T06:14:24;12.82;;;7.55;;
37633;SDS011;32048;49.902;22.508;2023-08-20T06:16:51;11.07;;;7.40;;
37633;SDS011;32048;49.902;22.508;2023-08-20T06:19:18;8.63;;;7.07;;
37633;SDS011;32048;49.902;22.508;2023-08-20T06:21:45;11.55;;;8.50;;
37633;SDS011;32048;49.902;22.508;2023-08-20T06:24:12;9.50;;;8.13;;
37633;SDS011;32048;49.902;22.508;2023-08-20T06:26:40;10.73;;;8.13;;
37633;SDS011;32048;49.902;22.508;2023-08-20T06:29:07;9.98;;;8.32;;
37633;SDS011;32048;49.902;22.508;2023-08-20T06:31:34;10.05;;;8.75;;
37633;SDS011;32048;49.902;22.508;2023-08-20T06:34:01;11.23;;;8.70;;
37633;SDS011;32048;49.902;22.508;2023-08-20T06:36:29;9.75;;;8.07;;
37633;SDS011;32048;49.902;22.508;2023-08-20T06:38:56;8.52;;;7.72;;
37633;SDS011;32048;49.902;22.508;2023-08-20T06:41:23;10.10;;;8.30;;
37633;SDS011;32048;49.902;22.508;2023-08-20T06:43:50;9.40;;;7.15;;
37633;SDS011;32048;49.902;22.508;2023-08-20T06:46:17;8.52;;;7.03;;
37633;SDS011;32048;49.902;22.508;2023-08-20T06:48:44;8.52;;;7.00;;
37633;SDS011;32048;49.902;22.508;2023-08-20T06:51:12;9.00;;;6.57;;
37633;SDS011;32048;49.902;22.508;2023-08-20T06:53:42;8.25;;;7.40;;
37633;SDS011;32048;49.902;22.508;2023-08-20T06:56:10;8.50;;;7.07;;
37633;SDS011;32048;49.902;22.508;2023-08-20T06:58:40;8.98;;;7.05;;
37633;SDS011;32048;49.902;22.508;2023-08-20T07:01:08;9.00;;;7.22;;
37633;SDS011;32048;49.902;22.508;2023-08-20T07:03:37;9.32;;;7.57;;
37633;SDS011;32048;49.902;22.508;2023-08-20T07:06:05;12.60;;;6.72;;
37633;SDS011;32048;49.902;22.508;2023-08-20T07:08:33;9.43;;;6.88;;
37633;SDS011;32048;49.902;22.508;2023-08-20T07:11:00;8.23;;;7.10;;
37633;SDS011;32048;49.902;22.508;2023-08-20T07:13:27;7.53;;;6.70;;
37633;SDS011;32048;49.902;22.508;2023-08-20T07:15:54;7.95;;;7.00;;
37633;SDS011;32048;49.902;22.508;2023-08-20T07:18:22;8.43;;;7.20;;
37633;SDS011;32048;49.902;22.508;2023-08-20T07:20:50;7.35;;;6.47;;
37633;SDS011;32048;49.902;22.508;2023-08-20T07:23:18;11.85;;;7.15;;
37633;SDS011;32048;49.902;22.508;2023-08-20T07:25:46;9.82;;;6.53;;
37633;SDS011;32048;49.902;22.508;2023-08-20T07:28:13;8.43;;;6.00;;
37633;SDS011;32048;49.902;22.508;2023-08-20T07:30:41;8.90;;;6.87;;
37633;SDS011;32048;49.902;22.508;2023-08-20T07:33:08;9.85;;;6.10;;
37633;SDS011;32048;49.902;22.508;2023-08-20T07:35:35;8.02;;;6.07;;
37633;SDS011;32048;49.902;22.508;2023-08-20T07:38:02;6.25;;;5.65;;
37633;SDS011;32048;49.902;22.508;2023-08-20T07:40:30;6.45;;;5.70;;
37633;SDS011;32048;49.902;22.508;2023-08-20T07:43:00;6.88;;;5.18;;
37633;SDS011;32048;49.902;22.508;2023-08-20T07:45:28;8.97;;;5.87;;
37633;SDS011;32048;49.902;22.508;2023-08-20T07:47:55;8.18;;;5.20;;
37633;SDS011;32048;49.902;22.508;2023-08-20T07:50:22;6.95;;;4.80;;
37633;SDS011;32048;49.902;22.508;2023-08-20T07:52:49;6.82;;;5.22;;
37633;SDS011;32048;49.902;22.508;2023-08-20T07:55:16;6.07;;;5.47;;
37633;SDS011;32048;49.902;22.508;2023-08-20T07:57:43;6.80;;;5.50;;
37633;SDS011;32048;49.902;22.508;2023-08-20T08:00:11;6.27;;;5.00;;
37633;SDS011;32048;49.902;22.508;2023-08-20T08:02:38;6.28;;;5.40;;
37633;SDS011;32048;49.902;22.508;2023-08-20T08:05:05;6.50;;;4.90;;
37633;SDS011;32048;49.902;22.508;2023-08-20T08:07:33;6.88;;;5.05;;
37633;SDS011;32048;49.902;22.508;2023-08-20T08:10:00;5.47;;;4.57;;
37633;SDS011;32048;49.902;22.508;2023-08-20T08:12:27;4.88;;;4.45;;
37633;SDS011;32048;49.902;22.508;2023-08-20T08:14:54;5.35;;;4.55;;
37633;SDS011;32048;49.902;22.508;2023-08-20T08:17:21;6.75;;;6.00;;
37633;SDS011;32048;49.902;22.508;2023-08-20T08:19:49;5.70;;;4.90;;
37633;SDS011;32048;49.902;22.508;2023-08-20T08:22:18;5.32;;;4.75;;
37633;SDS011;32048;49.902;22.508;2023-08-20T08:24:45;6.60;;;4.63;;
37633;SDS011;32048;49.902;22.508;2023-08-20T08:27:12;6.07;;;4.70;;
37633;SDS011;32048;49.902;22.508;2023-08-20T08:29:40;5.10;;;4.50;;
37633;SDS011;32048;49.902;22.508;2023-08-20T08:32:07;6.90;;;5.05;;
37633;SDS011;32048;49.902;22.508;2023-08-20T08:34:34;9.40;;;4.47;;
37633;SDS011;32048;49.902;22.508;2023-08-20T08:37:01;5.67;;;4.40;;
37633;SDS011;32048;49.902;22.508;2023-08-20T08:39:28;7.53;;;4.60;;
37633;SDS011;32048;49.902;22.508;2023-08-20T08:41:56;5.50;;;5.00;;
37633;SDS011;32048;49.902;22.508;2023-08-20T08:44:31;6.82;;;4.55;;
37633;SDS011;32048;49.902;22.508;2023-08-20T08:47:01;5.63;;;4.70;;
37633;SDS011;32048;49.902;22.508;2023-08-20T08:49:32;6.60;;;4.68;;
37633;SDS011;32048;49.902;22.508;2023-08-20T08:52:03;7.57;;;4.57;;
37633;SDS011;32048;49.902;22.508;2023-08-20T08:54:32;7.00;;;4.38;;
37633;SDS011;32048;49.902;22.508;2023-08-20T08:57:00;4.68;;;4.07;;
37633;SDS011;32048;49.902;22.508;2023-08-20T08:59:27;4.38;;;3.97;;
37633;SDS011;32048;49.902;22.508;2023-08-20T09:01:54;5.38;;;4.00;;
37633;SDS011;32048;49.902;22.508;2023-08-20T09:04:23;4.55;;;4.10;;
37633;SDS011;32048;49.902;22.508;2023-08-20T09:06:52;5.72;;;4.15;;
37633;SDS011;32048;49.902;22.508;2023-08-20T09:09:21;6.22;;;4.22;;
37633;SDS011;32048;49.902;22.508;2023-08-20T09:11:48;4.45;;;4.05;;
37633;SDS011;32048;49.902;22.508;2023-08-20T09:14:23;8.10;;;4.30;;
37633;SDS011;32048;49.902;22.508;2023-08-20T09:16:54;6.40;;;4.25;;
37633;SDS011;32048;49.902;22.508;2023-08-20T09:19:27;10.13;;;4.25;;
37633;SDS011;32048;49.902;22.508;2023-08-20T09:21:59;5.80;;;4.40;;
37633;SDS011;32048;49.902;22.508;2023-08-20T09:24:34;6.88;;;4.32;;
37633;SDS011;32048;49.902;22.508;2023-08-20T09:27:08;8.05;;;4.60;;
37633;SDS011;32048;49.902;22.508;2023-08-20T09:29:43;9.40;;;4.50;;
37633;SDS011;32048;49.902;22.508;2023-08-20T09:32:13;6.70;;;4.47;;
37633;SDS011;32048;49.902;22.508;2023-08-20T09:34:43;5.30;;;4.63;;
37633;SDS011;32048;49.902;22.508;2023-08-20T09:39:41;5.82;;;4.70;;
37633;SDS011;32048;49.902;22.508;2023-08-20T09:42:09;5.95;;;4.60;;
37633;SDS011;32048;49.902;22.508;2023-08-20T09:44:38;5.90;;;4.50;;
37633;SDS011;32048;49.902;22.508;2023-08-20T09:47:09;6.80;;;4.25;;
37633;SDS011;32048;49.902;22.508;2023-08-20T09:49:38;6.40;;;4.32;;
37633;SDS011;32048;49.902;22.508;2023-08-20T09:52:07;5.03;;;4.50;;
37633;SDS011;32048;49.902;22.508;2023-08-20T09:57:22;6.85;;;4.80;;
37633;SDS011;32048;49.902;22.508;2023-08-20T09:59:54;6.90;;;4.93;;
37633;SDS011;32048;49.902;22.508;2023-08-20T10:02:22;7.22;;;4.32;;
37633;SDS011;32048;49.902;22.508;2023-08-20T10:04:50;6.40;;;4.68;;
37633;SDS011;32048;49.902;22.508;2023-08-20T10:07:19;5.72;;;4.80;;
37633;SDS011;32048;49.902;22.508;2023-08-20T10:09:48;5.57;;;4.68;;
37633;SDS011;32048;49.902;22.508;2023-08-20T10:12:17;5.35;;;4.68;;
37633;SDS011;32048;49.902;22.508;2023-08-20T10:14:45;4.40;;;3.97;;
37633;SDS011;32048;49.902;22.508;2023-08-20T10:17:12;5.80;;;4.50;;
37633;SDS011;32048;49.902;22.508;2023-08-20T10:19:42;5.65;;;4.90;;
37633;SDS011;32048;49.902;22.508;2023-08-20T10:22:09;6.05;;;4.93;;
37633;SDS011;32048;49.902;22.508;2023-08-20T10:24:41;6.53;;;5.03;;
37633;SDS011;32048;49.902;22.508;2023-08-20T10:27:23;5.53;;;4.88;;
37633;SDS011;32048;49.902;22.508;2023-08-20T10:29:52;7.97;;;5.28;;
37633;SDS011;32048;49.902;22.508;2023-08-20T10:32:43;5.88;;;5.07;;
37633;SDS011;32048;49.902;22.508;2023-08-20T10:35:12;5.80;;;5.00;;
37633;SDS011;32048;49.902;22.508;2023-08-20T10:37:40;6.82;;;5.57;;
37633;SDS011;32048;49.902;22.508;2023-08-20T10:43:33;6.18;;;5.10;;
37633;SDS011;32048;49.902;22.508;2023-08-20T10:46:15;5.90;;;5.40;;
37633;SDS011;32048;49.902;22.508;2023-08-20T10:51:26;6.72;;;5.38;;
37633;SDS011;32048;49.902;22.508;2023-08-20T10:56:42;7.30;;;5.72;;
37633;SDS011;32048;49.902;22.508;2023-08-20T11:01:54;7.22;;;6.30;;
37633;SDS011;32048;49.902;22.508;2023-08-20T11:04:27;8.82;;;5.50;;
37633;SDS011;32048;49.902;22.508;2023-08-20T11:06:56;7.43;;;5.80;;
37633;SDS011;32048;49.902;22.508;2023-08-20T11:09:24;6.80;;;6.10;;
37633;SDS011;32048;49.902;22.508;2023-08-20T11:11:52;12.13;;;10.90;;
37633;SDS011;32048;49.902;22.508;2023-08-20T11:19:19;8.90;;;7.80;;
37633;SDS011;32048;49.902;22.508;2023-08-20T11:21:48;9.57;;;7.70;;
37633;SDS011;32048;49.902;22.508;2023-08-20T11:24:16;9.20;;;7.50;;
37633;SDS011;32048;49.902;22.508;2023-08-20T11:26:44;9.18;;;7.40;;
37633;SDS011;32048;49.902;22.508;2023-08-20T11:29:13;8.88;;;7.57;;
37633;SDS011;32048;49.902;22.508;2023-08-20T11:31:42;10.10;;;7.28;;
37633;SDS011;32048;49.902;22.508;2023-08-20T11:34:11;8.95;;;7.50;;
37633;SDS011;32048;49.902;22.508;2023-08-20T11:36:38;9.18;;;7.68;;
37633;SDS011;32048;49.902;22.508;2023-08-20T11:39:07;8.25;;;7.40;;
37633;SDS011;32048;49.902;22.508;2023-08-20T11:41:35;10.32;;;7.22;;
37633;SDS011;32048;49.902;22.508;2023-08-20T11:44:03;8.27;;;6.07;;
37633;SDS011;32048;49.902;22.508;2023-08-20T11:46:31;7.50;;;6.70;;
37633;SDS011;32048;49.902;22.508;2023-08-20T11:51:39;6.85;;;6.15;;
37633;SDS011;32048;49.902;22.508;2023-08-20T11:54:09;8.23;;;6.47;;
37633;SDS011;32048;49.902;22.508;2023-08-20T11:56:48;7.50;;;6.50;;
37633;SDS011;32048;49.902;22.508;2023-08-20T11:59:16;10.55;;;6.63;;
37633;SDS011;32048;49.902;22.508;2023-08-20T12:01:54;7.07;;;6.38;;
37633;SDS011;32048;49.902;22.508;2023-08-20T12:04:23;8.48;;;5.78;;
37633;SDS011;32048;49.902;22.508;2023-08-20T12:09:33;8.98;;;6.20;;
37633;SDS011;32048;49.902;22.508;2023-08-20T12:12:01;6.93;;;6.32;;
37633;SDS011;32048;49.902;22.508;2023-08-20T12:14:28;8.35;;;6.70;;
37633;SDS011;32048;49.902;22.508;2023-08-20T12:16:56;8.40;;;6.45;;
37633;SDS011;32048;49.902;22.508;2023-08-20T12:19:24;6.75;;;6.13;;
37633;SDS011;32048;49.902;22.508;2023-08-20T12:21:51;10.88;;;6.55;;
37633;SDS011;32048;49.902;22.508;2023-08-20T12:24:18;6.97;;;6.27;;
37633;SDS011;32048;49.902;22.508;2023-08-20T12:29:13;7.40;;;6.53;;
37633;SDS011;32048;49.902;22.508;2023-08-20T12:31:41;9.70;;;6.00;;
37633;SDS011;32048;49.902;22.508;2023-08-20T12:34:08;6.60;;;6.00;;
37633;SDS011;32048;49.902;22.508;2023-08-20T12:36:36;8.30;;;6.55;;
37633;SDS011;32048;49.902;22.508;2023-08-20T12:39:03;7.85;;;6.45;;
37633;SDS011;32048;49.902;22.508;2023-08-20T12:41:31;6.63;;;6.00;;
37633;SDS011;32048;49.902;22.508;2023-08-20T12:43:58;8.65;;;5.88;;
37633;SDS011;32048;49.902;22.508;2023-08-20T12:46:26;8.30;;;7.43;;
37633;SDS011;32048;49.902;22.508;2023-08-20T12:48:53;8.50;;;7.05;;
37633;SDS011;32048;49.902;22.508;2023-08-20T12:51:21;8.00;;;7.20;;
37633;SDS011;32048;49.902;22.508;2023-08-20T12:53:48;9.60;;;7.32;;
37633;SDS011;32048;49.902;22.508;2023-08-20T12:56:15;9.13;;;7.88;;
37633;SDS011;32048;49.902;22.508;2023-08-20T12:58:43;9.15;;;7.35;;
37633;SDS011;32048;49.902;22.508;2023-08-20T13:01:11;10.75;;;7.60;;
37633;SDS011;32048;49.902;22.508;2023-08-20T13:03:38;10.18;;;7.60;;
37633;SDS011;32048;49.902;22.508;2023-08-20T13:06:06;15.82;;;14.18;;
37633;SDS011;32048;49.902;22.508;2023-08-20T13:08:33;14.60;;;11.77;;
37633;SDS011;32048;49.902;22.508;2023-08-20T13:11:01;12.70;;;7.72;;
37633;SDS011;32048;49.902;22.508;2023-08-20T13:13:31;12.70;;;8.20;;
37633;SDS011;32048;49.902;22.508;2023-08-20T13:16:00;10.70;;;7.88;;
37633;SDS011;32048;49.902;22.508;2023-08-20T13:18:28;11.05;;;8.25;;
37633;SDS011;32048;49.902;22.508;2023-08-20T13:20:55;8.97;;;8.07;;
37633;SDS011;32048;49.902;22.508;2023-08-20T13:23:22;10.88;;;8.25;;
37633;SDS011;32048;49.902;22.508;2023-08-20T13:25:50;8.43;;;7.63;;
37633;SDS011;32048;49.902;22.508;2023-08-20T13:28:17;8.68;;;7.75;;
37633;SDS011;32048;49.902;22.508;2023-08-20T13:30:45;9.80;;;8.50;;
37633;SDS011;32048;49.902;22.508;2023-08-20T13:33:13;10.32;;;9.30;;
37633;SDS011;32048;49.902;22.508;2023-08-20T13:35:41;9.35;;;8.35;;
37633;SDS011;32048;49.902;22.508;2023-08-20T13:38:08;9.63;;;8.70;;
37633;SDS011;32048;49.902;22.508;2023-08-20T13:40:36;9.23;;;7.00;;
37633;SDS011;32048;49.902;22.508;2023-08-20T13:43:03;13.95;;;8.05;;
37633;SDS011;32048;49.902;22.508;2023-08-20T13:45:31;7.55;;;6.85;;
37633;SDS011;32048;49.902;22.508;2023-08-20T13:47:58;7.30;;;6.60;;
37633;SDS011;32048;49.902;22.508;2023-08-20T13:50:27;8.80;;;6.90;;
37633;SDS011;32048;49.902;22.508;2023-08-20T13:52:54;8.07;;;6.70;;
37633;SDS011;32048;49.902;22.508;2023-08-20T13:55:24;8.68;;;6.18;;
37633;SDS011;32048;49.902;22.508;2023-08-20T13:57:51;6.82;;;6.10;;
37633;SDS011;32048;49.902;22.508;2023-08-20T14:00:18;10.25;;;6.75;;
37633;SDS011;32048;49.902;22.508;2023-08-20T14:02:45;11.77;;;8.30;;
37633;SDS011;32048;49.902;22.508;2023-08-20T14:05:13;8.25;;;7.43;;
37633;SDS011;32048;49.902;22.508;2023-08-20T14:07:39;8.93;;;8.02;;
37633;SDS011;32048;49.902;22.508;2023-08-20T14:10:08;9.63;;;8.25;;
37633;SDS011;32048;49.902;22.508;2023-08-20T14:12:36;10.52;;;8.27;;
37633;SDS011;32048;49.902;22.508;2023-08-20T14:15:06;8.85;;;7.95;;
37633;SDS011;32048;49.902;22.508;2023-08-20T14:17:34;8.43;;;7.63;;
37633;SDS011;32048;49.902;22.508;2023-08-20T14:20:02;10.32;;;8.40;;
37633;SDS011;32048;49.902;22.508;2023-08-20T14:22:30;10.60;;;8.25;;
37633;SDS011;32048;49.902;22.508;2023-08-20T14:24:57;9.60;;;7.63;;
37633;SDS011;32048;49.902;22.508;2023-08-20T14:27:24;9.70;;;8.18;;
37633;SDS011;32048;49.902;22.508;2023-08-20T14:29:51;10.57;;;8.32;;
37633;SDS011;32048;49.902;22.508;2023-08-20T14:32:18;9.23;;;8.32;;
37633;SDS011;32048;49.902;22.508;2023-08-20T14:34:46;11.70;;;9.25;;
37633;SDS011;32048;49.902;22.508;2023-08-20T14:37:13;9.63;;;7.95;;
37633;SDS011;32048;49.902;22.508;2023-08-20T14:39:40;9.75;;;8.35;;
37633;SDS011;32048;49.902;22.508;2023-08-20T14:42:07;9.68;;;8.23;;
37633;SDS011;32048;49.902;22.508;2023-08-20T14:44:35;9.65;;;7.85;;
37633;SDS011;32048;49.902;22.508;2023-08-20T14:47:01;10.80;;;8.25;;
37633;SDS011;32048;49.902;22.508;2023-08-20T14:49:31;9.27;;;8.40;;
37633;SDS011;32048;49.902;22.508;2023-08-20T14:51:58;9.25;;;8.38;;
37633;SDS011;32048;49.902;22.508;2023-08-20T14:54:45;10.48;;;9.00;;
37633;SDS011;32048;49.902;22.508;2023-08-20T14:57:13;9.55;;;8.55;;
37633;SDS011;32048;49.902;22.508;2023-08-20T14:59:44;9.05;;;8.13;;
37633;SDS011;32048;49.902;22.508;2023-08-20T15:02:11;10.52;;;9.35;;
37633;SDS011;32048;49.902;22.508;2023-08-20T15:04:38;9.57;;;8.60;;
37633;SDS011;32048;49.902;22.508;2023-08-20T15:07:05;9.82;;;8.23;;
37633;SDS011;32048;49.902;22.508;2023-08-20T15:09:33;8.77;;;7.40;;